Дата Пункты Температура Давл., мм. Влажн., % Ветер Погодные явления
Воздуха Воды Направл. Скорость
23.01.20 11:00 Одесса 4.0 4.0 763 63 Пн-З 3 11 ГОДИН
23.01.20 08:00 Одесса 3.0 4.0 761 67 Пн-З 3 08 ГОДИН
23.01.20 05:00 Одесса 3.0 4.0 759 63 Пн-З 4 05 ГОДИН
23.01.20 02:00 Одесса 4.0 4.0 758 70 Пн-З 5 02 ГОДИНИ
22.01.20 11:00 Одесса 5.0 4.0 758 64 Пн-З 2 23 ГОДИНИ
22.01.20 08:00 Одесса 8.0 4.0 757 50 Пн-З 3 20 ГОДИН
22.01.20 05:00 Одесса 10.0 4.0 757 39 З 2 17 ГОДИН
22.01.20 02:00 Одесса 11.0 4.0 759 37 З 5 14 ГОДИН
22.01.20 11:00 Одесса 7.0 3.0 762 48 Пн-З 2 11 ГОДИН
22.01.20 08:00 Одесса 2.0 3.0 764 60 З 3 08 ГОДИН
22.01.20 05:00 Одесса 3.0 4.0 765 58 З 6 05 ГОДИН
22.01.20 02:00 Одесса 3.0 4.0 766 54 З 5 02 ГОДИНИ
21.01.20 11:00 Одесса 4.0 4.0 767 57 З 3 23 ГОДИНИ
21.01.20 08:00 Одесса 4.0 4.0 768 63 З 3 20 ГОДИН
21.01.20 05:00 Одесса 4.0 4.0 769 65 З 2 17 ГОДИН
21.01.20 02:00 Одесса 6.0 4.0 771 58 Пн-З 2 14 ГОДИН
21.01.20 11:00 Одесса 3.0 3.0 773 68 Пн-З 3 11 ГОДИН
21.01.20 08:00 Одесса 1.0 3.0 774 76 Пн-З 2 08 ГОДИН
21.01.20 05:00 Одесса 1.0 3.0 775 77 Пн-З 2 05 ГОДИН
21.01.20 02:00 Одесса 1.0 3.0 775 78 Пн-З 2 02 ГОДИНИ
Количество строк
1 2 3 4 5 6 7 8 9 10
Page 2 of 579